Time;durP1;ratioP1;P1;durP2;ratioP2;P2;SDS_P1;SDS_P2;PMS_P1;PMS_P2;Temp;Humidity;BMP_temperature;BMP_pressure;BME280_temperature;BME280_humidity;BME280_pressure;Samples;Min_cycle;Max_cycle;Signal;HPM_P1;HPM_P2
2023/03/15 00:01:45;;;;;;;22.25;7.03;;;6.20;99.90;;;;;;4976807;28;20045;-73
2023/03/15 00:04:12;;;;;;;19.83;6.80;;;6.30;99.90;;;;;;4976720;28;20051;-73
2023/03/15 00:06:37;;;;;;;20.88;6.15;;;6.30;99.90;;;;;;4968612;28;20027;-73
2023/03/15 00:09:03;;;;;;;18.48;6.50;;;6.20;99.90;;;;;;4966373;28;20445;-74
2023/03/15 00:11:30;;;;;;;14.77;6.47;;;6.20;99.90;;;;;;4961940;28;20476;-73
2023/03/15 00:13:56;;;;;;;18.38;6.78;;;6.20;99.90;;;;;;4967061;28;20419;-73
2023/03/15 00:16:25;;;;;;;20.00;7.25;;;6.20;99.90;;;;;;4969443;28;20034;-72
2023/03/15 00:18:52;;;;;;;17.35;7.25;;;6.20;99.90;;;;;;4967674;28;20498;-72
2023/03/15 00:21:18;;;;;;;13.82;7.20;;;6.30;99.90;;;;;;4968255;28;20031;-73
2023/03/15 00:23:43;;;;;;;13.68;7.40;;;6.20;99.90;;;;;;4975019;28;20445;-73
2023/03/15 00:26:09;;;;;;;19.67;8.30;;;6.10;99.90;;;;;;4971539;28;20030;-73
2023/03/15 00:28:35;;;;;;;16.40;7.72;;;6.00;99.90;;;;;;4970614;28;20649;-73
2023/03/15 00:31:23;;;;;;;16.63;7.72;;;5.90;99.90;;;;;;4968851;28;20078;-72
2023/03/15 00:33:52;;;;;;;38.90;26.10;;;5.80;99.90;;;;;;4972380;28;20019;-72
2023/03/15 00:36:22;;;;;;;22.98;8.20;;;5.90;99.90;;;;;;4975010;28;20452;-72
2023/03/15 00:38:49;;;;;;;16.52;8.23;;;5.80;99.90;;;;;;4972521;28;20073;-72
2023/03/15 00:41:16;;;;;;;15.50;8.02;;;5.90;99.90;;;;;;4966144;28;20061;-73
2023/03/15 00:43:42;;;;;;;15.65;7.45;;;5.80;99.90;;;;;;4965641;28;20041;-72
2023/03/15 00:46:09;;;;;;;11.00;6.78;;;6.00;99.90;;;;;;4970172;28;20495;-72
2023/03/15 00:48:35;;;;;;;13.02;6.18;;;5.90;99.90;;;;;;4968728;28;20076;-71
2023/03/15 00:51:12;;;;;;;11.75;5.22;;;5.90;99.90;;;;;;4972793;28;20038;-72
2023/03/15 00:53:40;;;;;;;11.50;5.82;;;5.90;99.90;;;;;;4972574;28;20038;-72
2023/03/15 00:56:15;;;;;;;10.98;5.88;;;5.90;99.90;;;;;;4969650;28;20052;-72
2023/03/15 00:58:41;;;;;;;11.57;6.00;;;5.90;99.90;;;;;;4973670;28;20046;-72
2023/03/15 01:01:14;;;;;;;10.88;6.45;;;5.90;99.90;;;;;;4973965;28;20041;-72
2023/03/15 01:03:40;;;;;;;7.68;4.75;;;5.90;99.90;;;;;;4975150;28;20034;-73
2023/03/15 01:06:14;;;;;;;8.45;5.30;;;5.70;99.90;;;;;;4974622;28;20098;-72
2023/03/15 01:08:40;;;;;;;7.13;4.43;;;5.70;99.90;;;;;;4969412;28;20069;-72
2023/03/15 01:11:18;;;;;;;6.97;3.42;;;5.70;99.90;;;;;;4968527;28;20062;-72
2023/03/15 01:13:43;;;;;;;6.22;3.55;;;5.70;99.90;;;;;;4969073;28;20029;-73
2023/03/15 01:16:11;;;;;;;5.68;3.35;;;5.70;99.90;;;;;;4972451;28;20038;-73
2023/03/15 01:18:37;;;;;;;6.38;3.60;;;5.70;99.90;;;;;;4967409;28;20023;-72
2023/03/15 01:21:06;;;;;;;6.45;3.72;;;5.70;99.90;;;;;;4969134;28;20035;-74
2023/03/15 01:23:32;;;;;;;5.18;3.53;;;5.70;99.90;;;;;;4972442;28;20027;-73
2023/03/15 01:26:02;;;;;;;5.95;3.45;;;5.70;99.90;;;;;;4981096;28;20031;-73
2023/03/15 01:28:28;;;;;;;6.50;4.30;;;5.70;99.90;;;;;;4969421;28;20110;-73
2023/03/15 01:30:54;;;;;;;9.10;3.95;;;5.70;99.90;;;;;;4966841;28;20038;-73
2023/03/15 01:33:20;;;;;;;8.05;4.10;;;5.60;99.90;;;;;;4970123;28;20050;-73
2023/03/15 01:35:47;;;;;;;8.48;4.95;;;5.60;99.90;;;;;;4967337;28;20053;-73
2023/03/15 01:38:12;;;;;;;7.28;5.30;;;5.60;99.90;;;;;;4968753;28;20031;-73
2023/03/15 01:40:43;;;;;;;7.05;4.63;;;5.60;99.90;;;;;;4967379;28;20076;-73
2023/03/15 01:43:17;;;;;;;9.48;5.13;;;5.50;99.90;;;;;;4971800;28;20028;-73
2023/03/15 01:46:01;;;;;;;8.85;5.07;;;5.60;99.90;;;;;;4974261;28;20057;-73
2023/03/15 01:48:44;;;;;;;8.57;5.15;;;5.50;99.90;;;;;;4972421;28;20027;-72
2023/03/15 01:51:20;;;;;;;10.73;5.35;;;5.50;99.90;;;;;;4969328;28;20888;-72
2023/03/15 01:54:08;;;;;;;11.40;5.70;;;5.40;99.90;;;;;;4967230;28;20027;-72
2023/03/15 01:56:37;;;;;;;9.85;4.97;;;5.50;99.90;;;;;;4972798;28;20049;-72
2023/03/15 01:59:08;;;;;;;7.28;5.00;;;5.40;99.90;;;;;;4962164;28;20023;-73
2023/03/15 02:01:44;;;;;;;7.60;4.95;;;5.50;99.90;;;;;;4979389;28;20488;-73
2023/03/15 02:04:14;;;;;;;7.72;5.28;;;5.40;99.90;;;;;;4979121;28;20536;-73
2023/03/15 02:06:45;;;;;;;6.30;4.80;;;5.40;99.90;;;;;;4963329;28;20470;-73
2023/03/15 02:09:13;;;;;;;7.28;5.20;;;5.60;99.90;;;;;;4964406;28;20031;-73
2023/03/15 02:11:40;;;;;;;8.30;4.95;;;5.60;99.90;;;;;;4985385;28;20029;-73
2023/03/15 02:14:08;;;;;;;8.13;4.40;;;5.50;99.90;;;;;;4968905;28;20102;-72
2023/03/15 02:16:34;;;;;;;8.32;4.80;;;5.50;99.90;;;;;;4970961;28;20035;-72
2023/03/15 02:19:00;;;;;;;10.13;5.28;;;5.50;99.90;;;;;;4967727;28;20514;-73
2023/03/15 02:21:35;;;;;;;9.75;4.90;;;5.50;99.90;;;;;;4975936;28;20043;-73
2023/03/15 02:24:33;;;;;;;6.28;4.85;;;5.50;99.90;;;;;;4971780;28;20056;-73
2023/03/15 02:26:59;;;;;;;6.57;4.45;;;5.50;99.90;;;;;;4963150;28;20050;-73
2023/03/15 02:29:27;;;;;;;6.20;5.50;;;5.60;99.90;;;;;;4968846;28;20102;-73
2023/03/15 02:31:54;;;;;;;7.18;5.60;;;5.60;99.90;;;;;;4966755;28;20496;-73
2023/03/15 02:34:24;;;;;;;7.30;5.80;;;5.60;99.90;;;;;;4969460;28;20072;-71
2023/03/15 02:36:51;;;;;;;11.90;6.88;;;5.50;99.90;;;;;;4979237;28;20019;-72
2023/03/15 02:39:19;;;;;;;9.13;6.15;;;5.50;99.90;;;;;;4975885;28;20026;-71
2023/03/15 02:41:58;;;;;;;8.38;6.43;;;5.50;99.90;;;;;;4981230;28;20089;-71
2023/03/15 02:44:36;;;;;;;12.05;7.28;;;5.50;99.90;;;;;;4986933;28;20023;-71
2023/03/15 02:47:26;;;;;;;11.57;7.20;;;5.40;99.90;;;;;;4978352;28;20172;-71
2023/03/15 02:49:52;;;;;;;7.28;6.20;;;5.60;99.90;;;;;;4986844;28;20043;-71
2023/03/15 02:52:19;;;;;;;8.40;6.35;;;5.60;99.90;;;;;;4982763;28;20292;-71
2023/03/15 02:54:45;;;;;;;8.60;6.18;;;5.60;99.90;;;;;;4968337;28;20137;-71
2023/03/15 02:57:16;;;;;;;11.38;7.68;;;5.80;99.90;;;;;;4972920;28;20102;-72
2023/03/15 02:59:41;;;;;;;9.57;7.43;;;5.70;99.90;;;;;;4982298;28;20027;-72
2023/03/15 03:02:10;;;;;;;7.47;6.28;;;5.80;99.90;;;;;;4986147;28;20019;-71
2023/03/15 03:04:36;;;;;;;10.73;6.97;;;5.80;99.90;;;;;;4977769;28;20597;-72
2023/03/15 03:07:02;;;;;;;6.90;6.20;;;5.80;99.90;;;;;;4975926;28;20049;-72
2023/03/15 03:09:28;;;;;;;8.85;6.15;;;5.80;99.90;;;;;;4985638;28;20046;-72
2023/03/15 03:11:54;;;;;;;6.82;6.13;;;5.80;99.90;;;;;;4980743;28;20027;-72
2023/03/15 03:14:22;;;;;;;9.20;6.53;;;5.90;99.90;;;;;;4983220;28;20025;-71
2023/03/15 03:16:48;;;;;;;9.75;6.60;;;5.90;99.90;;;;;;4978081;28;20732;-71
2023/03/15 03:19:14;;;;;;;6.82;6.13;;;5.80;99.90;;;;;;4983854;28;20026;-72
2023/03/15 03:21:43;;;;;;;9.98;7.10;;;5.80;99.90;;;;;;4979946;28;20026;-72
2023/03/15 03:24:09;;;;;;;9.77;7.53;;;5.90;99.90;;;;;;4980101;28;20030;-72
2023/03/15 03:26:36;;;;;;;12.40;8.00;;;5.90;99.90;;;;;;4975157;28;20026;-71
2023/03/15 03:29:04;;;;;;;13.40;9.18;;;6.00;99.90;;;;;;4970557;28;20093;-72
2023/03/15 03:31:32;;;;;;;10.35;8.73;;;6.00;99.90;;;;;;4974188;28;20033;-72
2023/03/15 03:33:58;;;;;;;11.18;8.75;;;6.10;99.90;;;;;;4975177;28;20109;-72
2023/03/15 03:36:25;;;;;;;12.32;9.25;;;6.10;99.90;;;;;;4966340;28;20094;-71
2023/03/15 03:38:52;;;;;;;11.30;9.52;;;6.10;99.90;;;;;;4966453;28;20028;-72
2023/03/15 03:41:19;;;;;;;11.65;9.38;;;6.10;99.90;;;;;;4968755;28;20102;-72
2023/03/15 03:43:45;;;;;;;13.10;10.30;;;5.90;99.90;;;;;;4974609;28;20421;-71
2023/03/15 03:46:11;;;;;;;15.07;11.00;;;5.90;99.90;;;;;;4975667;28;20062;-71
2023/03/15 03:48:36;;;;;;;14.45;11.15;;;5.80;99.90;;;;;;4985542;28;20108;-71
2023/03/15 03:51:02;;;;;;;15.38;11.50;;;5.80;99.90;;;;;;4978111;28;20110;-72
2023/03/15 03:53:28;;;;;;;14.93;12.13;;;5.80;99.90;;;;;;4986621;28;20419;-72
2023/03/15 03:55:54;;;;;;;13.25;11.15;;;5.70;99.90;;;;;;4978962;28;20122;-72
2023/03/15 03:58:20;;;;;;;17.27;12.43;;;5.80;99.90;;;;;;4974521;28;20104;-72
2023/03/15 04:00:45;;;;;;;16.98;12.32;;;5.60;99.90;;;;;;4985140;28;20013;-72
2023/03/15 04:03:11;;;;;;;17.30;13.15;;;5.60;99.90;;;;;;4970846;28;20035;-72
2023/03/15 04:05:37;;;;;;;20.08;13.60;;;5.60;99.90;;;;;;4978988;28;20023;-72
2023/03/15 04:08:03;;;;;;;20.98;15.35;;;5.70;99.90;;;;;;4971694;28;20035;-72
2023/03/15 04:10:33;;;;;;;16.48;12.63;;;5.60;99.90;;;;;;4983960;28;20051;-71
2023/03/15 04:13:00;;;;;;;19.23;13.35;;;5.60;99.90;;;;;;4982127;28;20471;-71
2023/03/15 04:15:26;;;;;;;20.20;13.70;;;5.50;99.90;;;;;;4974069;28;20070;-74
2023/03/15 04:17:54;;;;;;;18.90;12.82;;;5.60;99.90;;;;;;4978597;28;20023;-73
2023/03/15 04:20:27;;;;;;;16.90;13.27;;;5.60;99.90;;;;;;4983946;28;20111;-74
2023/03/15 04:22:53;;;;;;;17.55;13.38;;;5.70;99.90;;;;;;4979179;28;20152;-73
2023/03/15 04:25:19;;;;;;;17.85;13.02;;;5.60;99.90;;;;;;4978070;28;20034;-73
2023/03/15 04:27:45;;;;;;;16.45;12.90;;;5.60;99.90;;;;;;4975346;28;20031;-73
2023/03/15 04:30:11;;;;;;;20.27;15.15;;;5.60;99.90;;;;;;4967090;28;20118;-73
2023/03/15 04:32:37;;;;;;;17.60;14.00;;;5.70;99.90;;;;;;4979359;28;20028;-73
2023/03/15 04:35:04;;;;;;;15.80;12.55;;;5.70;99.90;;;;;;4972243;28;20072;-73
2023/03/15 04:37:33;;;;;;;18.98;14.25;;;5.60;99.90;;;;;;4981027;28;20034;-73
2023/03/15 04:39:58;;;;;;;21.80;13.77;;;5.70;99.90;;;;;;4980807;28;20023;-73
2023/03/15 04:42:25;;;;;;;20.42;14.18;;;5.80;99.90;;;;;;4975567;28;20109;-73
2023/03/15 04:44:52;;;;;;;22.60;13.57;;;5.80;99.90;;;;;;4980618;28;20027;-73
2023/03/15 04:47:19;;;;;;;19.58;13.30;;;5.70;99.90;;;;;;4981105;28;20034;-73
2023/03/15 04:49:44;;;;;;;21.05;13.95;;;5.70;99.90;;;;;;4970338;28;20046;-73
2023/03/15 04:52:10;;;;;;;20.13;14.43;;;5.70;99.90;;;;;;4967533;28;20028;-73
2023/03/15 04:54:38;;;;;;;20.75;15.10;;;5.70;99.90;;;;;;4994645;28;20068;-73
2023/03/15 04:57:04;;;;;;;21.58;14.30;;;5.70;99.90;;;;;;4978078;28;20023;-73
2023/03/15 04:59:30;;;;;;;19.42;14.20;;;5.70;99.90;;;;;;4985274;28;20061;-73
2023/03/15 05:01:55;;;;;;;20.90;15.13;;;5.70;99.90;;;;;;4976429;28;20464;-73
2023/03/15 05:04:21;;;;;;;24.83;16.50;;;5.60;99.90;;;;;;4966372;28;20027;-73
2023/03/15 05:06:46;;;;;;;21.95;15.93;;;5.60;99.90;;;;;;4971742;28;20101;-72
2023/03/15 05:09:17;;;;;;;25.08;17.23;;;5.60;99.90;;;;;;4980942;28;20042;-74
2023/03/15 05:11:44;;;;;;;26.13;16.52;;;5.60;99.90;;;;;;4974397;28;20026;-73
2023/03/15 05:14:09;;;;;;;24.73;17.02;;;5.60;99.90;;;;;;4967520;28;20067;-73
2023/03/15 05:16:35;;;;;;;26.38;17.73;;;5.60;99.90;;;;;;4980360;28;20110;-73
2023/03/15 05:19:01;;;;;;;26.02;16.77;;;5.60;99.90;;;;;;4981795;28;20037;-72
2023/03/15 05:21:26;;;;;;;29.92;18.67;;;5.50;99.90;;;;;;4973147;28;20027;-73
2023/03/15 05:23:52;;;;;;;23.70;15.90;;;5.50;99.90;;;;;;4974658;28;20551;-73
2023/03/15 05:26:17;;;;;;;26.50;17.20;;;5.50;99.90;;;;;;4985684;28;20032;-73
2023/03/15 05:28:44;;;;;;;26.58;17.30;;;5.40;99.90;;;;;;4976096;28;20109;-73
2023/03/15 05:31:10;;;;;;;27.00;17.00;;;5.40;99.90;;;;;;4981658;28;20042;-73
2023/03/15 05:33:35;;;;;;;27.80;18.83;;;5.40;99.90;;;;;;4961013;28;20072;-73
2023/03/15 05:36:02;;;;;;;24.17;16.67;;;5.30;99.90;;;;;;4979244;28;20554;-73
2023/03/15 05:38:27;;;;;;;27.48;18.13;;;5.40;99.90;;;;;;4966677;28;20023;-73
2023/03/15 05:40:53;;;;;;;26.42;18.92;;;5.40;99.90;;;;;;4979095;28;20407;-73
2023/03/15 05:43:19;;;;;;;27.23;19.25;;;5.30;99.90;;;;;;4975232;28;20027;-73
2023/03/15 05:45:46;;;;;;;24.75;15.43;;;5.20;99.90;;;;;;4972497;28;20026;-73
2023/03/15 05:48:12;;;;;;;25.23;16.33;;;5.20;99.90;;;;;;4972477;28;20029;-73
2023/03/15 05:50:37;;;;;;;25.65;17.55;;;5.20;99.90;;;;;;4970416;28;20039;-73
2023/03/15 05:53:03;;;;;;;26.80;17.02;;;5.20;99.90;;;;;;4991247;28;20032;-73
2023/03/15 05:55:29;;;;;;;28.10;17.13;;;5.20;99.90;;;;;;4979970;28;20035;-73
2023/03/15 05:57:55;;;;;;;31.88;18.85;;;5.20;99.90;;;;;;4966557;28;20076;-73
2023/03/15 06:00:20;;;;;;;32.42;18.83;;;5.20;99.90;;;;;;4968740;28;20023;-72
2023/03/15 06:02:46;;;;;;;30.88;18.73;;;5.10;99.90;;;;;;4982862;28;20121;-73
2023/03/15 06:05:12;;;;;;;30.98;19.63;;;5.20;99.90;;;;;;4986737;28;20484;-72
2023/03/15 06:07:37;;;;;;;31.92;21.92;;;5.10;99.90;;;;;;4983075;28;20047;-72
2023/03/15 06:10:04;;;;;;;28.70;17.95;;;5.10;99.90;;;;;;4968086;28;20063;-72
2023/03/15 06:12:29;;;;;;;29.88;18.83;;;5.10;99.90;;;;;;4980993;28;20021;-73
2023/03/15 06:14:55;;;;;;;32.28;19.77;;;5.10;99.90;;;;;;4968538;28;20101;-72
2023/03/15 06:17:21;;;;;;;30.35;17.80;;;5.10;99.90;;;;;;4985098;28;20414;-73
2023/03/15 06:19:46;;;;;;;33.63;19.83;;;5.00;99.90;;;;;;4978155;28;20023;-73
2023/03/15 06:22:12;;;;;;;28.67;18.27;;;5.00;99.90;;;;;;4970586;28;20427;-72
2023/03/15 06:24:38;;;;;;;29.58;19.15;;;5.10;99.90;;;;;;4973448;28;20030;-72
2023/03/15 06:27:04;;;;;;;26.52;18.00;;;5.00;99.90;;;;;;4972758;28;20031;-72
2023/03/15 06:29:30;;;;;;;29.55;18.50;;;5.00;99.90;;;;;;4973290;28;20077;-72
2023/03/15 06:31:55;;;;;;;31.20;19.20;;;5.10;99.90;;;;;;4973374;28;20110;-72
2023/03/15 06:34:21;;;;;;;32.47;18.23;;;5.10;99.90;;;;;;4973786;28;20542;-72
2023/03/15 06:36:48;;;;;;;26.80;17.33;;;5.10;99.90;;;;;;4973998;28;20019;-72
2023/03/15 06:39:14;;;;;;;25.35;16.55;;;5.10;99.90;;;;;;4972750;28;20019;-72
2023/03/15 06:41:43;;;;;;;26.83;17.63;;;5.00;99.90;;;;;;4973551;28;20042;-73
2023/03/15 06:44:09;;;;;;;26.70;17.95;;;5.00;99.90;;;;;;4972925;28;20368;-73
2023/03/15 06:46:36;;;;;;;29.25;17.65;;;5.00;99.90;;;;;;4973829;28;20033;-73
2023/03/15 06:49:02;;;;;;;27.02;18.52;;;5.00;99.90;;;;;;4973285;28;20026;-72
2023/03/15 06:51:28;;;;;;;25.83;17.52;;;5.00;99.90;;;;;;4972094;28;20129;-72
2023/03/15 06:53:53;;;;;;;27.02;16.85;;;5.10;99.90;;;;;;4972320;28;20609;-72
2023/03/15 06:56:19;;;;;;;27.90;17.58;;;5.10;99.90;;;;;;4974055;28;20115;-73
2023/03/15 06:58:45;;;;;;;28.27;16.52;;;5.10;99.90;;;;;;4961067;28;20533;-72
2023/03/15 07:01:12;;;;;;;29.80;17.33;;;5.10;99.90;;;;;;4967895;28;20435;-72
2023/03/15 07:03:38;;;;;;;26.92;16.50;;;5.20;99.90;;;;;;4965169;28;20706;-72
2023/03/15 07:06:04;;;;;;;31.45;17.58;;;5.30;99.90;;;;;;4973514;28;20035;-72
2023/03/15 07:08:30;;;;;;;26.35;16.55;;;5.40;99.90;;;;;;4972953;28;20037;-72
2023/03/15 07:10:56;;;;;;;24.30;15.00;;;5.40;99.90;;;;;;4973222;28;20081;-72
2023/03/15 07:13:22;;;;;;;28.08;15.38;;;5.40;99.90;;;;;;4970089;28;20019;-72
2023/03/15 07:15:52;;;;;;;24.75;14.05;;;5.40;99.90;;;;;;4970893;28;20061;-72
2023/03/15 07:18:18;;;;;;;19.88;12.70;;;5.40;99.90;;;;;;4968135;28;20468;-72
2023/03/15 07:20:44;;;;;;;25.60;13.88;;;5.60;99.90;;;;;;4982772;28;20130;-72
2023/03/15 07:23:10;;;;;;;25.60;14.15;;;5.60;99.90;;;;;;4972332;28;20455;-71
2023/03/15 07:25:36;;;;;;;26.80;14.32;;;5.70;99.90;;;;;;4970358;28;20035;-72
2023/03/15 07:28:01;;;;;;;21.02;12.90;;;5.60;99.90;;;;;;4955747;28;20058;-72
2023/03/15 07:30:27;;;;;;;22.90;13.25;;;5.60;99.90;;;;;;4971623;28;20125;-72
2023/03/15 07:32:53;;;;;;;21.42;12.40;;;5.70;99.90;;;;;;4967182;28;20023;-72
2023/03/15 07:35:19;;;;;;;21.42;12.60;;;5.80;99.90;;;;;;4953574;28;20081;-72
2023/03/15 07:37:45;;;;;;;22.13;12.20;;;5.80;99.90;;;;;;4955185;28;20586;-72
2023/03/15 07:40:12;;;;;;;22.65;12.38;;;5.80;99.90;;;;;;4970805;28;20475;-73
2023/03/15 07:42:39;;;;;;;21.55;11.48;;;5.80;99.90;;;;;;4972157;28;20424;-73
2023/03/15 07:45:06;;;;;;;24.00;12.05;;;5.90;99.90;;;;;;4972824;28;20110;-72
2023/03/15 07:47:31;;;;;;;18.38;11.43;;;6.00;99.90;;;;;;4972000;28;20105;-73
2023/03/15 07:49:57;;;;;;;22.30;11.35;;;5.90;99.90;;;;;;4971483;28;20118;-73
2023/03/15 07:52:23;;;;;;;18.50;11.40;;;6.00;99.90;;;;;;4971143;28;20483;-72
2023/03/15 07:54:49;;;;;;;22.38;10.70;;;6.10;99.90;;;;;;4971815;28;20387;-72
2023/03/15 07:57:15;;;;;;;18.25;11.23;;;6.00;99.90;;;;;;4972006;28;20039;-73
2023/03/15 07:59:40;;;;;;;20.15;11.27;;;6.10;99.90;;;;;;4957612;28;20031;-72
2023/03/15 08:02:08;;;;;;;23.92;10.45;;;6.20;99.90;;;;;;4954863;28;20035;-72
2023/03/15 08:04:34;;;;;;;18.58;10.73;;;6.10;99.90;;;;;;4972532;28;20113;-72
2023/03/15 08:07:00;;;;;;;18.27;10.05;;;6.10;99.90;;;;;;4971229;28;20031;-73
2023/03/15 08:09:25;;;;;;;17.33;10.32;;;6.20;99.90;;;;;;4972321;28;20542;-73
2023/03/15 08:11:51;;;;;;;17.20;9.93;;;6.30;99.90;;;;;;4972138;28;20018;-73
2023/03/15 08:14:17;;;;;;;17.48;9.82;;;6.30;99.90;;;;;;4972323;28;20027;-73
2023/03/15 08:16:42;;;;;;;17.98;10.20;;;6.40;99.90;;;;;;4971635;28;20030;-73
2023/03/15 08:19:09;;;;;;;16.38;10.30;;;6.40;99.90;;;;;;4971547;28;20066;-73
2023/03/15 08:21:34;;;;;;;20.02;11.15;;;6.50;99.90;;;;;;4971170;28;20043;-72
2023/03/15 08:24:00;;;;;;;33.50;10.98;;;6.60;99.90;;;;;;4970476;28;20060;-73
2023/03/15 08:26:26;;;;;;;18.92;10.20;;;6.60;99.90;;;;;;4970234;28;20038;-73
2023/03/15 08:28:52;;;;;;;17.38;9.88;;;6.60;99.90;;;;;;4970551;28;20405;-73
2023/03/15 08:31:17;;;;;;;23.25;9.65;;;6.70;99.90;;;;;;4970966;28;20038;-73
2023/03/15 08:33:43;;;;;;;14.07;8.32;;;6.60;99.90;;;;;;4971974;28;20031;-73
2023/03/15 08:36:09;;;;;;;12.85;7.97;;;6.60;99.90;;;;;;4971795;28;20027;-73
2023/03/15 08:38:34;;;;;;;12.55;8.15;;;6.60;99.90;;;;;;4971884;28;20051;-73
2023/03/15 08:41:00;;;;;;;24.13;9.90;;;6.70;99.90;;;;;;4971941;28;20391;-73
2023/03/15 08:43:26;;;;;;;17.77;9.82;;;6.70;99.90;;;;;;4971951;28;20034;-73
2023/03/15 08:45:52;;;;;;;15.25;9.63;;;6.70;99.90;;;;;;4971838;28;20026;-73
2023/03/15 08:48:18;;;;;;;19.27;10.18;;;6.80;99.90;;;;;;4970697;28;20536;-73
2023/03/15 08:50:43;;;;;;;17.45;10.10;;;6.90;99.90;;;;;;4970845;28;20129;-73
2023/03/15 08:53:10;;;;;;;20.15;10.35;;;7.10;99.90;;;;;;4971442;28;20144;-73
2023/03/15 08:55:36;;;;;;;15.13;8.90;;;7.30;99.90;;;;;;4971428;28;20098;-73
2023/03/15 08:58:03;;;;;;;13.15;7.75;;;7.40;99.90;;;;;;4985859;28;20382;-73
2023/03/15 09:00:29;;;;;;;13.38;8.27;;;7.50;99.90;;;;;;4969075;28;20027;-72
2023/03/15 09:02:55;;;;;;;15.23;8.13;;;7.60;99.90;;;;;;4968352;28;20043;-73
2023/03/15 09:05:24;;;;;;;14.38;8.30;;;7.70;99.90;;;;;;4986013;28;20023;-73
2023/03/15 09:07:51;;;;;;;14.95;7.80;;;7.90;99.90;;;;;;4971119;28;20088;-73
2023/03/15 09:10:18;;;;;;;14.88;7.55;;;8.00;99.90;;;;;;4971278;28;20096;-73
2023/03/15 09:12:49;;;;;;;12.80;7.82;;;8.10;99.90;;;;;;4970227;28;20027;-73
2023/03/15 09:15:15;;;;;;;14.25;6.55;;;8.10;99.90;;;;;;4970597;28;20034;-72
2023/03/15 09:17:41;;;;;;;10.45;5.97;;;8.10;99.90;;;;;;4968796;28;20070;-73
2023/03/15 09:20:11;;;;;;;10.25;6.70;;;8.20;99.90;;;;;;4971234;28;20419;-73
2023/03/15 09:22:37;;;;;;;13.35;5.78;;;8.30;99.90;;;;;;4970556;28;20035;-73
2023/03/15 09:25:03;;;;;;;8.50;5.38;;;8.40;99.90;;;;;;4970360;28;20404;-73
2023/03/15 09:27:30;;;;;;;12.40;5.80;;;8.40;99.90;;;;;;4969745;28;20042;-72
2023/03/15 09:29:56;;;;;;;9.30;5.38;;;8.50;99.90;;;;;;4966226;28;20057;-72
2023/03/15 09:32:22;;;;;;;11.25;5.50;;;8.50;99.90;;;;;;4966381;28;20063;-73
2023/03/15 09:34:48;;;;;;;11.95;5.90;;;8.50;99.90;;;;;;4967791;28;20022;-70
2023/03/15 09:37:14;;;;;;;12.95;5.40;;;8.70;99.90;;;;;;4963812;28;20101;-72
2023/03/15 09:39:40;;;;;;;12.35;5.15;;;8.90;99.90;;;;;;4970609;28;20111;-72
2023/03/15 09:42:15;;;;;;;9.80;4.40;;;9.10;99.90;;;;;;4965612;28;20026;-73
2023/03/15 09:45:27;;;;;;;18.23;5.07;;;9.20;99.90;;;;;;4969192;28;20026;-72
2023/03/15 09:48:16;;;;;;;10.82;4.88;;;9.40;99.90;;;;;;5048204;28;20435;-73
2023/03/15 09:51:07;;;;;;;12.75;3.88;;;9.50;99.90;;;;;;4968158;28;20479;-72
2023/03/15 09:54:13;;;;;;;12.88;2.50;;;9.50;99.90;;;;;;4976217;28;20062;-73
2023/03/15 09:56:46;;;;;;;9.45;2.05;;;9.60;99.90;;;;;;4964206;28;20054;-73
2023/03/15 09:59:15;;;;;;;10.68;2.08;;;9.30;99.90;;;;;;4965936;28;20415;-73
2023/03/15 10:01:42;;;;;;;15.60;2.03;;;9.40;99.90;;;;;;4974003;28;20110;-73
2023/03/15 10:04:29;;;;;;;10.32;1.90;;;9.60;99.90;;;;;;4971025;28;20042;-73
2023/03/15 10:06:58;;;;;;;13.38;2.60;;;9.80;99.90;;;;;;4968345;28;20028;-73
2023/03/15 10:09:28;;;;;;;6.93;1.48;;;9.90;99.90;;;;;;4967796;28;20035;-73
2023/03/15 10:12:03;;;;;;;8.82;2.03;;;10.00;99.90;;;;;;4970241;28;20589;-73
2023/03/15 10:14:40;;;;;;;9.18;1.90;;;10.20;99.90;;;;;;4968181;28;20411;-72
2023/03/15 10:17:26;;;;;;;6.43;1.58;;;10.30;99.90;;;;;;4977543;28;20459;-73
2023/03/15 10:20:00;;;;;;;10.35;1.92;;;10.30;99.90;;;;;;4969720;28;20087;-72
2023/03/15 10:22:57;;;;;;;8.38;2.15;;;10.40;99.90;;;;;;4964170;28;20114;-73
2023/03/15 10:25:28;;;;;;;12.45;2.63;;;10.20;99.90;;;;;;4970678;28;20049;-73
2023/03/15 10:28:06;;;;;;;5.55;1.23;;;10.00;99.90;;;;;;4966414;28;20046;-72
2023/03/15 10:30:35;;;;;;;7.43;2.10;;;9.60;99.90;;;;;;4965724;28;20038;-73
2023/03/15 10:33:30;;;;;;;7.85;1.90;;;10.00;99.90;;;;;;4984331;28;20027;-73
2023/03/15 10:35:57;;;;;;;6.78;1.80;;;10.10;99.90;;;;;;4968216;28;20034;-73
2023/03/15 10:38:24;;;;;;;8.70;1.95;;;10.20;99.90;;;;;;4964806;28;20058;-73
2023/03/15 10:40:58;;;;;;;10.00;2.15;;;10.30;99.90;;;;;;4964493;28;20023;-73
2023/03/15 10:43:29;;;;;;;7.45;2.22;;;10.60;99.90;;;;;;4966260;28;20022;-73
2023/03/15 10:46:21;;;;;;;4.18;1.10;;;10.50;99.90;;;;;;4967848;28;20083;-72
2023/03/15 10:49:06;;;;;;;8.00;1.75;;;10.40;99.90;;;;;;4977416;28;20987;-72
2023/03/15 10:51:40;;;;;;;7.68;1.60;;;10.10;99.90;;;;;;4989294;28;20050;-73
2023/03/15 10:54:24;;;;;;;7.38;1.38;;;9.70;99.90;;;;;;4971138;28;20030;-73
2023/03/15 10:57:10;;;;;;;4.68;2.00;;;9.60;99.90;;;;;;4966359;28;20045;-73
2023/03/15 10:59:36;;;;;;;10.77;2.28;;;9.80;99.90;;;;;;4974765;28;20026;-73
2023/03/15 11:02:11;;;;;;;6.43;1.75;;;9.70;99.90;;;;;;4969589;28;20027;-73
2023/03/15 11:04:41;;;;;;;4.07;2.00;;;9.70;99.90;;;;;;4973583;28;20473;-74
2023/03/15 11:07:07;;;;;;;9.02;1.60;;;9.90;99.90;;;;;;4968505;28;20019;-73
2023/03/15 11:09:41;;;;;;;6.35;1.60;;;9.80;99.90;;;;;;4974652;28;20042;-73
2023/03/15 11:12:14;;;;;;;8.32;1.63;;;9.80;99.90;;;;;;4989142;28;20560;-74
2023/03/15 11:14:41;;;;;;;;;;;9.80;99.90;;;;;;4975999;28;20081;-71
2023/03/15 11:17:15;;;;;;;10.20;1.52;;;9.80;99.90;;;;;;4967663;28;19917;-73
2023/03/15 11:19:50;;;;;;;6.25;1.92;;;9.80;99.90;;;;;;4967821;28;20034;-74
2023/03/15 11:22:16;;;;;;;5.45;1.45;;;9.80;99.90;;;;;;4968767;28;20067;-73
2023/03/15 11:24:41;;;;;;;5.28;1.45;;;9.90;99.90;;;;;;4967471;28;20069;-72
2023/03/15 11:27:16;;;;;;;8.45;1.27;;;10.30;99.90;;;;;;4970707;28;20031;-73
2023/03/15 11:30:12;;;;;;;6.18;1.30;;;10.60;99.90;;;;;;4977464;28;20038;-73
2023/03/15 11:32:39;;;;;;;8.35;1.50;;;10.70;99.90;;;;;;4975257;28;20039;-73
2023/03/15 11:35:32;;;;;;;3.17;0.93;;;10.80;99.90;;;;;;4970474;28;20088;-73
2023/03/15 11:38:04;;;;;;;5.55;1.33;;;10.90;99.90;;;;;;4968398;28;20081;-73
2023/03/15 11:40:36;;;;;;;6.03;1.85;;;11.10;99.90;;;;;;4968811;28;20035;-73
2023/03/15 11:43:08;;;;;;;4.40;1.40;;;11.10;99.90;;;;;;4969240;28;20023;-73
2023/03/15 11:45:44;;;;;;;4.55;1.58;;;11.10;99.90;;;;;;4972635;28;20031;-73
2023/03/15 11:48:13;;;;;;;5.18;1.48;;;10.80;99.90;;;;;;4972049;28;20502;-74
2023/03/15 11:50:39;;;;;;;5.03;1.50;;;10.60;99.90;;;;;;4973157;28;20088;-74
2023/03/15 11:53:05;;;;;;;8.00;1.70;;;10.40;99.90;;;;;;4966315;28;20384;-73
2023/03/15 11:55:32;;;;;;;7.03;1.65;;;10.70;99.90;;;;;;4969140;28;20011;-73
2023/03/15 11:58:27;;;;;;;6.28;1.52;;;10.80;99.90;;;;;;4979081;28;20046;-73
2023/03/15 12:01:00;;;;;;;4.65;1.17;;;10.60;99.90;;;;;;4990336;28;20021;-73
2023/03/15 12:03:39;;;;;;;9.93;1.60;;;10.60;99.90;;;;;;4978442;28;20438;-73
2023/03/15 12:06:32;;;;;;;4.70;1.55;;;10.70;99.90;;;;;;4970134;28;20023;-73
2023/03/15 12:08:58;;;;;;;9.00;1.60;;;11.00;99.90;;;;;;4973634;28;20033;-73
2023/03/15 12:11:24;;;;;;;6.13;1.63;;;11.20;99.90;;;;;;4967650;28;20080;-73
2023/03/15 12:13:56;;;;;;;4.97;1.20;;;11.30;99.90;;;;;;4973602;28;20031;-74
2023/03/15 12:16:48;;;;;;;6.38;1.52;;;11.20;99.90;;;;;;4977843;28;20226;-74
2023/03/15 12:19:19;;;;;;;7.67;1.23;;;11.10;99.90;;;;;;4983529;28;20043;-74
2023/03/15 12:21:50;;;;;;;7.43;1.60;;;11.30;99.90;;;;;;4971871;28;20039;-74
2023/03/15 12:24:29;;;;;;;4.70;1.40;;;11.40;99.90;;;;;;4966834;28;20039;-74
2023/03/15 12:27:04;;;;;;;3.85;1.20;;;11.70;99.90;;;;;;4961529;28;20502;-74
2023/03/15 12:29:32;;;;;;;4.15;1.17;;;11.60;99.90;;;;;;4974156;28;20027;-74
2023/03/15 12:31:58;;;;;;;4.53;1.13;;;11.40;99.90;;;;;;4969450;28;20027;-74
2023/03/15 12:34:53;;;;;;;6.53;1.73;;;11.50;99.90;;;;;;4969318;28;20499;-74
2023/03/15 12:37:37;;;;;;;2.70;0.90;;;11.60;99.90;;;;;;4968275;28;20023;-74
2023/03/15 12:40:14;;;;;;;7.32;1.27;;;11.60;99.90;;;;;;4969215;28;20058;-74
2023/03/15 12:42:40;;;;;;;7.45;1.45;;;11.70;99.90;;;;;;4982853;28;20495;-74
2023/03/15 12:45:14;;;;;;;9.82;1.52;;;11.80;99.90;;;;;;4968482;28;20092;-74
2023/03/15 12:47:49;;;;;;;3.88;1.48;;;11.80;99.90;;;;;;4969968;28;20372;-74
2023/03/15 12:50:42;;;;;;;7.65;1.10;;;11.90;99.90;;;;;;4965868;28;20683;-73
2023/03/15 12:53:27;;;;;;;4.45;1.20;;;11.80;99.90;;;;;;4970022;28;20043;-71
2023/03/15 12:55:54;;;;;;;3.88;1.10;;;11.50;99.90;;;;;;4967118;28;20050;-71
2023/03/15 12:58:28;;;;;;;6.88;1.75;;;11.70;99.90;;;;;;4966957;28;20058;-71